createdAt,value
2019-05-12T00:01:31.296Z,91.93
2019-05-12T00:04:02.895Z,92.23
2019-05-12T00:06:34.433Z,92.62
2019-05-12T00:09:08.358Z,92.40
2019-05-12T00:11:39.856Z,92.30
2019-05-12T00:14:11.337Z,92.09
2019-05-12T00:16:42.853Z,92.18
2019-05-12T00:19:14.253Z,91.78
2019-05-12T00:21:48.148Z,91.27
2019-05-12T00:24:19.260Z,91.09
2019-05-12T00:26:52.392Z,91.40
2019-05-12T00:29:23.932Z,92.23
2019-05-12T00:31:55.437Z,92.15
2019-05-12T00:34:28.851Z,92.08
2019-05-12T00:37:00.180Z,91.84
2019-05-12T00:39:31.793Z,91.80
2019-05-12T00:42:03.283Z,91.79
2019-05-12T00:44:34.696Z,92.31
2019-05-12T00:47:08.187Z,92.33
2019-05-12T00:49:39.449Z,92.28
2019-05-12T00:52:10.926Z,92.11
2019-05-12T00:54:42.335Z,92.55
2019-05-12T00:57:13.848Z,93.05
2019-05-12T00:59:47.700Z,93.67
2019-05-12T01:02:18.538Z,94.18
2019-05-12T01:04:49.927Z,94.56
2019-05-12T01:07:22.926Z,95.18
2019-05-12T01:09:54.458Z,93.90
2019-05-12T01:12:25.863Z,93.70
2019-05-12T01:14:58.560Z,94.96
2019-05-12T01:17:30.154Z,95.49
2019-05-12T01:20:01.595Z,95.39
2019-05-12T01:22:33.147Z,96.12
2019-05-12T01:25:08.381Z,96.57
2019-05-12T01:27:39.217Z,96.48
2019-05-12T01:30:10.909Z,96.14
2019-05-12T01:32:42.613Z,96.08
2019-05-12T01:35:14.037Z,96.18
2019-05-12T01:37:45.524Z,96.44
2019-05-12T01:40:19.073Z,96.58
2019-05-12T01:42:50.246Z,96.75
2019-05-12T01:45:21.768Z,96.52
2019-05-12T01:47:53.267Z,96.49
2019-05-12T01:50:24.870Z,96.49
2019-05-12T01:52:58.732Z,96.59
2019-05-12T01:55:29.423Z,96.70
2019-05-12T01:58:01.052Z,96.80
2019-05-12T02:00:32.600Z,96.81
2019-05-12T02:03:04.194Z,96.95
2019-05-12T02:05:38.118Z,97.40
2019-05-12T02:08:11.351Z,97.25
2019-05-12T02:10:42.834Z,97.07
2019-05-12T02:13:14.287Z,96.98
2019-05-12T02:15:45.725Z,97.06
2019-05-12T02:18:17.840Z,96.82
2019-05-12T02:20:50.314Z,96.50
2019-05-12T02:23:21.755Z,96.31
2019-05-12T02:25:53.270Z,96.03
2019-05-12T02:28:24.685Z,95.95
2019-05-12T02:30:58.981Z,95.70
2019-05-12T02:33:29.483Z,95.56
2019-05-12T02:36:04.442Z,95.43
2019-05-12T02:38:34.076Z,95.83
2019-05-12T02:41:05.549Z,95.98
2019-05-12T02:43:37.596Z,96.09
2019-05-12T02:46:08.990Z,96.17
2019-05-12T02:48:40.457Z,96.28
2019-05-12T02:51:15.601Z,96.26
2019-05-12T02:53:47.330Z,95.92
2019-05-12T02:56:20.464Z,95.80
2019-05-12T02:58:54.357Z,95.77
2019-05-12T03:01:28.711Z,95.88
2019-05-12T03:04:05.788Z,95.86
2019-05-12T03:06:38.164Z,96.00
2019-05-12T03:09:09.651Z,96.34
2019-05-12T03:11:44.758Z,96.24
2019-05-12T03:14:15.970Z,96.60
2019-05-12T03:16:48.678Z,96.86
2019-05-12T03:19:21.050Z,97.10
2019-05-12T03:21:54.790Z,96.89
2019-05-12T03:24:25.869Z,96.86
2019-05-12T03:26:57.343Z,96.81
2019-05-12T03:29:28.836Z,96.85
2019-05-12T03:32:00.249Z,96.34
2019-05-12T03:34:37.585Z,95.87
2019-05-12T03:37:08.114Z,95.51
2019-05-12T03:39:39.368Z,95.24
2019-05-12T03:42:10.871Z,95.07
2019-05-12T03:44:44.492Z,95.16
2019-05-12T03:47:15.596Z,94.87
2019-05-12T03:49:47.142Z,93.89
2019-05-12T03:52:18.619Z,91.37
2019-05-12T03:54:50.114Z,89.63
2019-05-12T03:57:21.593Z,87.86
2019-05-12T03:59:54.344Z,87.55
2019-05-12T04:02:25.988Z,86.68
2019-05-12T04:04:57.552Z,84.17
2019-05-12T04:07:29.026Z,82.85
2019-05-12T04:10:00.538Z,81.37
2019-05-12T04:12:34.564Z,80.88
2019-05-12T04:15:06.582Z,79.02
2019-05-12T04:17:38.034Z,78.11
2019-05-12T04:20:09.448Z,78.98
2019-05-12T04:22:44.690Z,80.21
2019-05-12T04:25:15.274Z,82.61
2019-05-12T04:27:46.692Z,86.17
2019-05-12T04:30:18.195Z,86.70
2019-05-12T04:32:49.614Z,87.56
2019-05-12T04:35:24.869Z,88.09
2019-05-12T04:37:55.567Z,87.61
2019-05-12T04:40:27.160Z,87.55
2019-05-12T04:42:59.253Z,86.83
2019-05-12T04:45:34.616Z,87.57
2019-05-12T04:48:06.517Z,85.78
2019-05-12T04:50:39.312Z,81.50
2019-05-12T04:53:10.806Z,76.44
2019-05-12T04:55:44.547Z,75.14
2019-05-12T04:58:16.059Z,73.12
2019-05-12T05:00:47.743Z,72.23
2019-05-12T05:03:20.029Z,69.97
2019-05-12T05:05:54.745Z,68.40
2019-05-12T05:08:24.682Z,66.84
2019-05-12T05:10:56.318Z,64.22
2019-05-12T05:13:27.709Z,63.30
2019-05-12T05:15:59.209Z,65.36
2019-05-12T05:18:30.608Z,63.36
2019-05-12T05:21:04.541Z,64.17
2019-05-12T05:23:35.359Z,64.69
2019-05-12T05:26:19.835Z,63.61
2019-05-12T05:28:39.929Z,62.67
2019-05-12T05:31:11.355Z,57.37
2019-05-12T05:33:43.448Z,55.01
2019-05-12T05:36:19.607Z,53.90
2019-05-12T05:38:50.932Z,52.25
2019-05-12T05:41:21.299Z,51.39
2019-05-12T05:43:54.221Z,48.99
2019-05-12T05:46:25.957Z,47.85
2019-05-12T05:48:57.424Z,45.57
2019-05-12T05:51:28.934Z,44.32
2019-05-12T05:54:00.434Z,45.76
2019-05-12T05:56:42.222Z,42.63
2019-05-12T05:59:05.166Z,41.76
2019-05-12T06:01:40.272Z,41.11
2019-05-12T06:04:09.803Z,45.14
2019-05-12T06:06:42.697Z,41.77
2019-05-12T06:09:14.431Z,41.19
2019-05-12T06:11:45.758Z,40.00
2019-05-12T06:14:17.151Z,41.89
2019-05-12T06:16:48.643Z,41.05
2019-05-12T06:19:23.157Z,40.46
2019-05-12T06:21:53.437Z,39.37
2019-05-12T06:24:24.881Z,38.06
2019-05-12T06:27:00.648Z,39.01
2019-05-12T06:29:29.504Z,38.85
2019-05-12T06:32:06.244Z,41.14
2019-05-12T06:34:34.357Z,40.98
2019-05-12T06:37:11.829Z,40.44
2019-05-12T06:39:39.025Z,41.20
2019-05-12T06:42:15.961Z,38.65
2019-05-12T06:44:43.834Z,38.85
2019-05-12T06:47:15.411Z,38.98
2019-05-12T06:49:48.853Z,38.93
2019-05-12T06:52:20.029Z,45.19
2019-05-12T06:54:56.597Z,52.16
2019-05-12T06:57:28.603Z,57.64
2019-05-12T06:59:57.804Z,62.10
2019-05-12T07:02:30.239Z,62.97
2019-05-12T07:05:04.368Z,64.42
2019-05-12T07:07:41.850Z,65.63
2019-05-12T07:10:13.221Z,66.25
2019-05-12T07:12:55.985Z,66.78
2019-05-12T07:15:16.064Z,69.30
2019-05-12T07:17:50.000Z,68.29
2019-05-12T07:20:23.907Z,67.80
2019-05-12T07:22:54.981Z,66.64
2019-05-12T07:25:31.059Z,66.83
2019-05-12T07:28:01.506Z,67.01
2019-05-12T07:30:35.202Z,66.28
2019-05-12T07:33:08.357Z,66.20
2019-05-12T07:35:44.296Z,67.01
2019-05-12T07:38:20.827Z,66.83
2019-05-12T07:40:50.310Z,66.61
2019-05-12T07:43:24.310Z,67.72
2019-05-12T07:46:02.556Z,68.08
2019-05-12T07:48:33.254Z,68.40
2019-05-12T07:51:04.198Z,68.88
2019-05-12T07:53:35.863Z,66.89
2019-05-12T07:56:07.463Z,67.36
2019-05-12T07:58:40.906Z,67.73
2019-05-12T08:01:14.387Z,68.39
2019-05-12T08:03:45.431Z,67.96
2019-05-12T08:06:16.863Z,67.05
2019-05-12T08:08:50.448Z,66.77
2019-05-12T08:11:23.249Z,65.99
2019-05-12T08:13:54.705Z,66.15
2019-05-12T08:16:30.296Z,66.28
2019-05-12T08:18:59.188Z,66.30
2019-05-12T08:21:34.902Z,65.34
2019-05-12T08:24:03.937Z,65.70
2019-05-12T08:26:35.347Z,65.03
2019-05-12T08:29:10.332Z,64.56
2019-05-12T08:31:40.839Z,64.80
2019-05-12T08:34:13.675Z,64.83
2019-05-12T08:36:53.269Z,64.57
2019-05-12T08:39:22.891Z,64.43
2019-05-12T08:41:53.491Z,64.14
2019-05-12T08:44:33.753Z,65.36
2019-05-12T08:46:57.959Z,64.99
2019-05-12T08:49:35.815Z,63.63
2019-05-12T08:52:03.836Z,65.06
2019-05-12T08:54:39.666Z,64.84
2019-05-12T08:57:08.741Z,65.85
2019-05-12T08:59:41.305Z,66.66
2019-05-12T09:02:14.413Z,64.50
2019-05-12T09:04:51.281Z,65.45
2019-05-12T09:07:20.097Z,65.78
2019-05-12T09:09:53.398Z,64.22
2019-05-12T09:12:24.848Z,64.78
2019-05-12T09:14:56.339Z,65.41
2019-05-12T09:17:27.701Z,65.92
2019-05-12T09:20:05.993Z,65.35
2019-05-12T09:22:34.272Z,63.80
2019-05-12T09:25:08.385Z,64.57
2019-05-12T09:27:45.673Z,63.01
2019-05-12T09:30:14.398Z,62.94
2019-05-12T09:32:50.274Z,62.43
2019-05-12T09:35:19.094Z,60.43
2019-05-12T09:37:50.514Z,62.28
2019-05-12T09:40:22.787Z,62.35
2019-05-12T09:42:55.146Z,59.28
2019-05-12T09:45:26.572Z,62.33
2019-05-12T09:47:58.854Z,62.58
2019-05-12T09:50:31.370Z,62.14
2019-05-12T09:53:09.315Z,62.05
2019-05-12T09:55:36.054Z,61.47
2019-05-12T09:58:07.656Z,60.50
2019-05-12T10:00:39.134Z,59.34
2019-05-12T10:03:11.139Z,61.03
2019-05-12T10:05:44.258Z,59.46
2019-05-12T10:08:15.789Z,60.19
2019-05-12T10:10:47.311Z,60.25
2019-05-12T10:13:20.312Z,56.16
2019-05-12T10:15:53.574Z,57.32
2019-05-12T10:18:24.848Z,57.70
2019-05-12T10:20:56.357Z,56.11
2019-05-12T10:23:27.654Z,55.76
2019-05-12T10:26:01.455Z,56.02
2019-05-12T10:28:32.291Z,55.59
2019-05-12T10:31:04.172Z,54.94
2019-05-12T10:33:35.805Z,55.19
2019-05-12T10:36:08.562Z,54.44
2019-05-12T10:38:43.298Z,54.24
2019-05-12T10:41:14.408Z,55.09
2019-05-12T10:43:48.494Z,54.23
2019-05-12T10:46:26.845Z,54.53
2019-05-12T10:48:53.871Z,55.08
2019-05-12T10:51:24.993Z,55.58
2019-05-12T10:54:07.535Z,56.27
2019-05-12T10:56:30.448Z,55.57
2019-05-12T10:59:04.128Z,55.36
2019-05-12T11:01:38.408Z,53.25
2019-05-12T11:04:08.286Z,53.99
2019-05-12T11:06:44.022Z,54.17
2019-05-12T11:09:13.967Z,54.05
2019-05-12T11:11:47.087Z,53.52
2019-05-12T11:14:20.331Z,52.09
2019-05-12T11:16:54.245Z,51.66
2019-05-12T11:19:25.915Z,51.71
2019-05-12T11:21:57.352Z,51.58
2019-05-12T11:24:28.765Z,52.21
2019-05-12T11:27:00.125Z,50.96
2019-05-12T11:29:43.253Z,52.05
2019-05-12T11:32:04.491Z,51.22
2019-05-12T11:34:35.889Z,50.44
2019-05-12T11:37:07.312Z,51.60
2019-05-12T11:39:44.359Z,52.03
2019-05-12T11:42:13.682Z,50.56
2019-05-12T11:44:45.841Z,51.15
2019-05-12T11:47:24.385Z,50.39
2019-05-12T11:49:50.417Z,51.07
2019-05-12T11:52:23.943Z,50.59
2019-05-12T11:54:55.286Z,51.57
2019-05-12T11:57:30.322Z,50.20
2019-05-12T12:00:02.355Z,51.14
2019-05-12T12:02:34.299Z,51.31
2019-05-12T12:05:09.107Z,52.02
2019-05-12T12:07:49.051Z,51.48
2019-05-12T12:10:14.274Z,49.49
2019-05-12T12:12:49.265Z,50.27
2019-05-12T12:15:26.352Z,50.97
2019-05-12T12:17:54.562Z,49.66
2019-05-12T12:20:25.903Z,49.22
2019-05-12T12:23:00.255Z,48.81
2019-05-12T12:25:34.219Z,48.78
2019-05-12T12:28:05.159Z,47.82
2019-05-12T12:30:36.419Z,48.64
2019-05-12T12:33:07.968Z,50.39
2019-05-12T12:35:39.226Z,49.58
2019-05-12T12:38:10.677Z,50.91
2019-05-12T12:40:43.783Z,50.74
2019-05-12T12:43:15.158Z,50.93
2019-05-12T12:45:48.056Z,50.69
2019-05-12T12:48:24.800Z,50.65
2019-05-12T12:50:53.420Z,53.65
2019-05-12T12:53:27.561Z,57.40
2019-05-12T12:55:59.331Z,64.55
2019-05-12T12:58:31.534Z,68.36
2019-05-12T13:01:04.591Z,73.17
2019-05-12T13:03:36.140Z,75.34
2019-05-12T13:06:07.524Z,76.59
2019-05-12T13:08:39.163Z,73.47
2019-05-12T13:11:10.600Z,79.17
2019-05-12T13:13:42.035Z,74.81
2019-05-12T13:16:13.574Z,75.80
2019-05-12T13:18:44.986Z,71.40
2019-05-12T13:21:16.398Z,70.23
2019-05-12T13:23:50.921Z,70.90
2019-05-12T13:26:23.860Z,72.23
2019-05-12T13:28:55.373Z,71.39
2019-05-12T13:31:27.784Z,70.77
2019-05-12T13:33:59.452Z,71.71
2019-05-12T13:36:37.388Z,74.88
2019-05-12T13:39:11.310Z,75.89
2019-05-12T13:41:39.931Z,80.07
2019-05-12T13:44:13.742Z,82.28
2019-05-12T13:46:48.756Z,81.09
2019-05-12T13:49:17.823Z,82.26
2019-05-12T13:51:50.383Z,82.13
2019-05-12T13:54:26.157Z,82.15
2019-05-12T13:56:56.179Z,81.22
2019-05-12T13:59:27.674Z,81.70
2019-05-12T14:01:59.221Z,78.73
2019-05-12T14:04:30.685Z,79.48
2019-05-12T14:07:03.935Z,77.45
2019-05-12T14:09:35.167Z,76.90
2019-05-12T14:12:06.671Z,74.82
2019-05-12T14:14:38.147Z,77.82
2019-05-12T14:17:09.574Z,74.73
2019-05-12T14:19:41.126Z,75.82
2019-05-12T14:22:20.963Z,74.92
2019-05-12T14:24:47.101Z,74.41
2019-05-12T14:27:19.035Z,74.59
2019-05-12T14:29:53.666Z,72.71
2019-05-12T14:32:24.865Z,75.71
2019-05-12T14:35:00.544Z,71.88
2019-05-12T14:37:29.486Z,72.43
2019-05-12T14:40:00.918Z,69.19
2019-05-12T14:42:34.798Z,71.55
2019-05-12T14:45:07.060Z,68.59
2019-05-12T14:47:39.033Z,69.19
2019-05-12T14:50:10.574Z,70.10
2019-05-12T14:52:44.006Z,68.83
2019-05-12T14:55:15.139Z,70.11
2019-05-12T14:57:46.515Z,70.90
2019-05-12T15:00:21.199Z,70.34
2019-05-12T15:02:51.225Z,69.28
2019-05-12T15:05:25.299Z,69.60
2019-05-12T15:07:59.913Z,69.31
2019-05-12T15:10:29.116Z,69.78
2019-05-12T15:13:00.572Z,69.63
2019-05-12T15:15:33.593Z,68.97
2019-05-12T15:18:10.062Z,69.80
2019-05-12T15:20:41.585Z,70.06
2019-05-12T15:23:14.102Z,73.04
2019-05-12T15:25:44.614Z,74.34
2019-05-12T15:28:16.148Z,73.91
2019-05-12T15:30:47.643Z,75.46
2019-05-12T15:33:19.107Z,76.45
2019-05-12T15:35:50.596Z,75.99
2019-05-12T15:38:23.935Z,73.74
2019-05-12T15:40:55.120Z,73.67
2019-05-12T15:43:26.556Z,73.28
2019-05-12T15:45:59.630Z,74.37
2019-05-12T15:48:31.189Z,73.35
2019-05-12T15:51:05.210Z,71.70
2019-05-12T15:53:36.011Z,74.17
2019-05-12T15:56:14.967Z,70.80
2019-05-12T15:58:40.676Z,69.17
2019-05-12T16:01:13.880Z,67.60
2019-05-12T16:03:46.772Z,68.45
2019-05-12T16:06:18.205Z,68.46
2019-05-12T16:08:49.465Z,68.46
2019-05-12T16:11:23.854Z,69.80
2019-05-12T16:13:59.255Z,68.29
2019-05-12T16:16:34.079Z,68.80
2019-05-12T16:19:04.339Z,68.31
2019-05-12T16:21:34.692Z,69.00
2019-05-12T16:24:11.060Z,68.35
2019-05-12T16:26:42.939Z,68.02
2019-05-12T16:29:12.319Z,68.70
2019-05-12T16:31:47.872Z,68.57
2019-05-12T16:34:16.654Z,67.84
2019-05-12T16:36:52.015Z,68.28
2019-05-12T16:39:20.980Z,68.73
2019-05-12T16:41:54.441Z,69.39
2019-05-12T16:44:26.326Z,71.44
2019-05-12T16:46:58.068Z,70.30
2019-05-12T16:49:33.354Z,70.50
2019-05-12T16:52:03.699Z,72.78
2019-05-12T16:54:35.297Z,73.81
2019-05-12T16:57:12.893Z,71.19
2019-05-12T16:59:40.048Z,70.47
2019-05-12T17:02:13.602Z,72.26
2019-05-12T17:04:44.589Z,71.18
2019-05-12T17:07:20.643Z,71.90
2019-05-12T17:09:49.112Z,72.85
2019-05-12T17:12:23.897Z,73.53
2019-05-12T17:14:53.724Z,73.80
2019-05-12T17:17:25.152Z,74.45
2019-05-12T17:19:57.591Z,74.75
2019-05-12T17:22:29.120Z,74.68
2019-05-12T17:25:00.587Z,76.15
2019-05-12T17:27:34.006Z,77.14
2019-05-12T17:30:08.856Z,78.03
2019-05-12T17:32:53.913Z,77.73
2019-05-12T17:35:14.691Z,77.75
2019-05-12T17:37:46.087Z,77.67
2019-05-12T17:40:20.094Z,77.60
2019-05-12T17:42:50.878Z,77.38
2019-05-12T17:45:23.502Z,79.46
2019-05-12T17:48:03.014Z,79.55
2019-05-12T17:50:28.539Z,79.40
2019-05-12T17:53:00.648Z,80.93
2019-05-12T17:55:42.712Z,81.71
2019-05-12T17:58:13.558Z,83.08
2019-05-12T18:00:49.966Z,83.69
2019-05-12T18:03:21.939Z,84.12
2019-05-12T18:05:50.002Z,84.71
2019-05-12T18:08:24.023Z,84.22
2019-05-12T18:10:54.965Z,84.84
2019-05-12T18:13:28.272Z,85.63
2019-05-12T18:16:02.917Z,86.13
2019-05-12T18:18:37.999Z,86.40
2019-05-12T18:21:06.980Z,86.57
2019-05-12T18:23:38.482Z,86.78
2019-05-12T18:26:14.888Z,87.11
2019-05-12T18:28:44.227Z,87.29
2019-05-12T18:31:15.834Z,87.19
2019-05-12T18:33:52.125Z,87.51
2019-05-12T18:36:20.886Z,87.68
2019-05-12T18:38:56.278Z,87.69
2019-05-12T18:41:25.851Z,87.20
2019-05-12T18:43:57.553Z,86.82
2019-05-12T18:46:29.077Z,86.36
2019-05-12T18:49:05.247Z,85.57
2019-05-12T18:51:34.437Z,87.67
2019-05-12T18:54:10.209Z,87.41
2019-05-12T18:56:39.242Z,87.75
2019-05-12T18:59:15.590Z,88.20
2019-05-12T19:01:44.874Z,88.70
2019-05-12T19:04:16.301Z,88.30
2019-05-12T19:06:47.766Z,87.09
2019-05-12T19:09:19.285Z,85.93
2019-05-12T19:11:53.682Z,86.44
2019-05-12T19:14:35.275Z,86.92
2019-05-12T19:16:58.031Z,87.39
2019-05-12T19:19:29.478Z,88.81
2019-05-12T19:22:08.769Z,88.77
2019-05-12T19:24:36.277Z,89.02
2019-05-12T19:27:10.308Z,88.97
2019-05-12T19:29:48.167Z,88.41
2019-05-12T19:32:14.480Z,88.80
2019-05-12T19:34:46.239Z,88.98
2019-05-12T19:37:19.433Z,88.55
2019-05-12T19:39:53.700Z,87.23
2019-05-12T19:42:24.593Z,87.34
2019-05-12T19:44:59.830Z,87.51
2019-05-12T19:47:33.954Z,88.44
2019-05-12T19:50:07.255Z,88.73
2019-05-12T19:52:35.573Z,87.78
2019-05-12T19:55:08.289Z,88.10
2019-05-12T19:57:39.821Z,87.60
2019-05-12T20:00:13.619Z,87.21
2019-05-12T20:02:44.708Z,86.95
2019-05-12T20:05:17.736Z,86.81
2019-05-12T20:07:49.532Z,87.41
2019-05-12T20:10:20.977Z,87.86
2019-05-12T20:12:54.678Z,88.63
2019-05-12T20:15:30.240Z,88.73
2019-05-12T20:17:58.705Z,88.10
2019-05-12T20:20:36.490Z,87.56
2019-05-12T20:23:03.698Z,87.67
2019-05-12T20:25:36.035Z,87.77
2019-05-12T20:28:11.395Z,88.16
2019-05-12T20:30:40.591Z,87.20
2019-05-12T20:33:13.728Z,87.15
2019-05-12T20:35:49.246Z,86.42
2019-05-12T20:38:18.239Z,86.73
2019-05-12T20:40:49.661Z,85.92
2019-05-12T20:43:24.138Z,85.65
2019-05-12T20:45:54.267Z,86.73
2019-05-12T20:48:30.986Z,87.45
2019-05-12T20:50:58.845Z,86.99
2019-05-12T20:53:32.199Z,87.42
2019-05-12T20:56:03.815Z,87.55
2019-05-12T20:58:43.068Z,87.67
2019-05-12T21:01:09.538Z,84.53
2019-05-12T21:03:46.243Z,84.03
2019-05-12T21:06:14.555Z,82.92
2019-05-12T21:08:53.503Z,82.22
2019-05-12T21:11:20.367Z,81.85
2019-05-12T21:13:54.359Z,81.58
2019-05-12T21:16:31.266Z,80.94
2019-05-12T21:19:07.522Z,81.06
2019-05-12T21:21:34.180Z,79.95
2019-05-12T21:24:05.184Z,80.23
2019-05-12T21:26:37.996Z,80.58
2019-05-12T21:29:09.613Z,80.90
2019-05-12T21:31:41.055Z,80.82
2019-05-12T21:34:20.653Z,80.82
2019-05-12T21:36:45.585Z,81.28
2019-05-12T21:39:17.069Z,80.72
2019-05-12T21:41:52.104Z,81.20
2019-05-12T21:44:21.579Z,81.08
2019-05-12T21:47:03.732Z,81.39
2019-05-12T21:49:26.202Z,81.65
2019-05-12T21:52:02.972Z,81.47
2019-05-12T21:54:35.936Z,82.21
2019-05-12T21:57:03.966Z,82.34
2019-05-12T21:59:39.565Z,83.70
2019-05-12T22:02:08.655Z,84.46
2019-05-12T22:04:42.688Z,84.39
2019-05-12T22:07:15.020Z,85.04
2019-05-12T22:09:47.171Z,85.07
2019-05-12T22:12:23.419Z,82.72
2019-05-12T22:14:54.273Z,81.95
2019-05-12T22:17:25.994Z,83.82
2019-05-12T22:19:57.299Z,84.07
2019-05-12T22:22:30.030Z,85.30
2019-05-12T22:25:01.756Z,85.03
2019-05-12T22:27:33.268Z,83.50
2019-05-12T22:30:06.569Z,82.70
2019-05-12T22:32:38.110Z,82.06
2019-05-12T22:35:13.189Z,81.19
2019-05-12T22:37:44.679Z,81.74
2019-05-12T22:40:19.223Z,81.50
2019-05-12T22:42:50.537Z,82.50
2019-05-12T22:45:23.991Z,81.71
2019-05-12T22:47:59.136Z,81.07
2019-05-12T22:50:33.107Z,81.14
2019-05-12T22:53:04.525Z,81.40
2019-05-12T22:55:36.387Z,81.52
2019-05-12T22:58:10.653Z,83.94
2019-05-12T23:00:44.181Z,84.95
2019-05-12T23:03:15.485Z,85.32
2019-05-12T23:05:50.941Z,85.85
2019-05-12T23:08:21.412Z,86.24
2019-05-12T23:10:53.986Z,86.80
2019-05-12T23:13:26.286Z,86.02
2019-05-12T23:15:57.804Z,86.33
2019-05-12T23:18:30.849Z,87.09
2019-05-12T23:21:04.091Z,87.48
2019-05-12T23:23:35.529Z,87.79
2019-05-12T23:26:06.943Z,87.95
2019-05-12T23:28:40.391Z,88.43
2019-05-12T23:31:13.435Z,88.28
2019-05-12T23:33:46.158Z,88.76
2019-05-12T23:36:19.859Z,88.83
2019-05-12T23:39:00.127Z,89.21
2019-05-12T23:41:24.494Z,88.49
2019-05-12T23:43:56.038Z,87.71
2019-05-12T23:46:27.526Z,88.25
2019-05-12T23:48:58.925Z,88.96
2019-05-12T23:51:30.307Z,89.30
2019-05-12T23:54:03.766Z,89.24
2019-05-12T23:56:34.869Z,89.38
2019-05-12T23:59:06.269Z,89.52
